tititudorancea.com
Station Historical Data
Daily Summary for March 27, 2018 Units:  Metric    English   Both
« Previous Day
Next Day »
Daily Weekly Monthly Yearly Custom
  High: Low: Average:
Temperature: -17.8 °C 4.8 °C 13.3 °C
Dew Point: -17.8 °C 3.7 °C 5.7 °C
Humidity: Humidity % 37 % 65 %
Wind Speed: 0 km/h 0 km/h 7.1 km/h
Wind Gust: 0 km/h - -
Wind:- - South
Pressure: 0 hPa 1010.4 hPa -
Precipitation: 0 mm    
Historical Graphs
 
 
Ararat weather Find more about Weather in Ararat, AU


 



 


Tabular Data for March 27, 2018
Time Temperature Dew Point Pressure Wind Wind Speed Wind Gust Humidity Rainfall Rate (Hourly)
-17.8 °C -17.8 °C 0 hPa Calm     Humidity % 0 mm
00:01 9.3 °C 5.8 °C 1015.5 hPa Calm     79 % 0 mm
00:06 9.1 °C 5.8 °C 1015.5 hPa Calm     80 % 0 mm
00:11 8.8 °C 5.7 °C 1015.5 hPa Calm     81 % 0 mm
00:16 8.6 °C 5.7 °C 1015.5 hPa Calm     82 % 0 mm
00:21 8.4 °C 5.7 °C 1015.5 hPa North 3.9 km/h 5.6 km/h 83 % 0 mm
00:26 8.3 °C 5.7 °C 1015.5 hPa North 1.4 km/h 3.2 km/h 84 % 0 mm
00:31 8.2 °C 5.8 °C 1015.5 hPa Calm     85 % 0 mm
00:36 8.1 °C 5.7 °C 1015.5 hPa SW 2.4 km/h 3.7 km/h 85 % 0 mm
00:41 8.1 °C 5.8 °C 1015.5 hPa Calm     86 % 0 mm
00:46 7.9 °C 5.7 °C 1015.5 hPa Calm     86 % 0 mm
00:51 7.8 °C 5.6 °C 1015.5 hPa Calm     86 % 0 mm
00:56 7.8 °C 5.6 °C 1015.5 hPa Calm     86 % 0 mm
01:01 7.7 °C 5.7 °C 1015.5 hPa Calm     87 % 0 mm
01:06 7.6 °C 5.6 °C 1015.5 hPa Calm     87 % 0 mm
01:11 7.5 °C 5.5 °C 1015.5 hPa Calm     87 % 0 mm
01:16 7.3 °C 5.3 °C 1015.5 hPa Calm     87 % 0 mm
01:21 7.2 °C 5.2 °C 1015.5 hPa Calm     87 % 0 mm
01:26 7.1 °C 5.1 °C 1015.5 hPa Calm     87 % 0 mm
01:31 6.9 °C 5.7 °C 1015.5 hPa North 0.2 km/h 1.6 km/h 92 % 0 mm
01:36 6.8 °C 5 °C 1015.1 hPa Calm     88 % 0 mm
01:41 6.8 °C 4.9 °C 1015.1 hPa Calm     88 % 0 mm
01:46 6.6 °C 4.8 °C 1015.1 hPa Calm     88 % 0 mm
01:51 6.5 °C 4.8 °C 1015.5 hPa Calm     89 % 0 mm
01:56 6.4 °C 4.7 °C 1015.5 hPa SW 3.4 km/h 5.6 km/h 89 % 0 mm
02:01 6.4 °C 4.9 °C 1015.1 hPa SW 0.8 km/h 1.9 km/h 90 % 0 mm
02:06 6.4 °C 4.9 °C 1015.1 hPa Calm     90 % 0 mm
02:11 6.2 °C 4.6 °C 1015.1 hPa Calm     89 % 0 mm
02:16 6.2 °C 4.7 °C 1015.5 hPa Calm     90 % 0 mm
02:21 6.1 °C 4.6 °C 1015.1 hPa Calm     90 % 0 mm
02:26 6 °C 4.5 °C 1015.5 hPa Calm     90 % 0 mm
02:31 5.9 °C 4.4 °C 1015.5 hPa Calm     90 % 0 mm
02:36 5.9 °C 4.4 °C 1015.5 hPa Calm     90 % 0 mm
02:41 5.9 °C 4.6 °C 1015.5 hPa Calm     91 % 0 mm
02:46 5.8 °C 4.5 °C 1015.5 hPa Calm     91 % 0 mm
02:51 5.8 °C 4.4 °C 1015.5 hPa Calm     91 % 0 mm
02:56 5.7 °C 4.4 °C 1015.5 hPa Calm     91 % 0 mm
03:01 5.7 °C 4.3 °C 1015.5 hPa Calm     91 % 0 mm
03:06 5.6 °C 4.3 °C 1015.5 hPa Calm     91 % 0 mm
03:11 5.6 °C 4.2 °C 1015.5 hPa North 2.9 km/h 5.6 km/h 91 % 0 mm
03:16 5.7 °C 4.4 °C 1015.8 hPa North 0.3 km/h 3.2 km/h 92 % 0 mm
03:21 5.6 °C 4.3 °C 1015.5 hPa Calm     91 % 0 mm
03:26 5.6 °C 4.2 °C 1015.8 hPa Calm     91 % 0 mm
03:31 5.4 °C 4.1 °C 1015.8 hPa Calm     91 % 0 mm
03:36 5.4 °C 4.2 °C 1015.5 hPa Calm     92 % 0 mm
03:41 5.3 °C 4.1 °C 1015.5 hPa Calm     92 % 0 mm
03:46 5.2 °C 3.9 °C 1015.5 hPa Calm     91 % 0 mm
03:51 5.2 °C 3.8 °C 1015.5 hPa Calm     91 % 0 mm
03:56 5.1 °C 3.7 °C 1015.5 hPa Calm     91 % 0 mm
04:01 4.9 °C 3.8 °C 1015.5 hPa Calm     92 % 0 mm
04:06 4.9 °C 3.7 °C 1015.5 hPa Calm     92 % 0 mm
04:11 4.9 °C 3.7 °C 1015.5 hPa Calm     92 % 0 mm
04:16 4.8 °C 3.7 °C 1015.5 hPa Calm     92 % 0 mm
04:21 4.8 °C 3.7 °C 1015.5 hPa Calm     92 % 0 mm
04:26 4.9 °C 3.9 °C 1015.1 hPa Calm     93 % 0 mm
04:31 4.9 °C 3.9 °C 1015.1 hPa Calm     93 % 0 mm
04:36 4.9 °C 3.8 °C 1015.1 hPa Calm     92 % 0 mm
04:41 4.8 °C 3.7 °C 1015.1 hPa Calm     92 % 0 mm
04:46 4.9 °C 3.8 °C 1015.1 hPa Calm     93 % 0 mm
04:51 4.9 °C 3.8 °C 1015.1 hPa Calm     93 % 0 mm
04:56 5 °C 3.9 °C 1015.1 hPa Calm     93 % 0 mm
05:01 5 °C 3.9 °C 1015.1 hPa Calm     93 % 0 mm
05:06 5.1 °C 4 °C 1015.1 hPa Calm     93 % 0 mm
05:11 5 °C 3.9 °C 1015.1 hPa Calm     93 % 0 mm
05:16 5.1 °C 4 °C 1015.1 hPa Calm     93 % 0 mm
05:21 5.1 °C 4 °C 1015.5 hPa Calm     93 % 0 mm
05:26 5.1 °C 4.1 °C 1015.5 hPa Calm     93 % 0 mm
05:31 5.2 °C 4.1 °C 1015.1 hPa Calm     93 % 0 mm
05:36 5.3 °C 4.4 °C 1015.5 hPa SW 1.1 km/h 3.2 km/h 94 % 0 mm
05:41 5.6 °C 4.7 °C 1015.5 hPa SW 3.5 km/h 5.6 km/h 94 % 0 mm
05:46 5.9 °C 5 °C 1015.5 hPa Calm     94 % 0 mm
05:51 5.9 °C 5.1 °C 1015.5 hPa Calm   1.9 km/h 94 % 0 mm
05:56 5.9 °C 5.1 °C 1015.5 hPa North 2.1 km/h 3.7 km/h 94 % 0 mm
06:01 6 °C 5.1 °C 1015.5 hPa Calm   3.7 km/h 94 % 0 mm
06:06 6.1 °C 5.2 °C 1015.1 hPa North 0.5 km/h 3.7 km/h 94 % 0 mm
06:11 6.1 °C 5 °C 1015.1 hPa Calm     93 % 0 mm
06:16 6.2 °C 5.3 °C 1015.1 hPa Calm     94 % 0 mm
06:21 6.2 °C 5.3 °C 1015.5 hPa Calm     94 % 0 mm
06:26 6.3 °C 5.4 °C 1015.1 hPa Calm     94 % 0 mm
06:31 6.3 °C 5.4 °C 1015.5 hPa Calm     94 % 0 mm
06:36 6.3 °C 5.4 °C 1015.5 hPa Calm     94 % 0 mm
06:41 6.4 °C 5.5 °C 1015.5 hPa Calm     94 % 0 mm
06:46 6.4 °C 5.6 °C 1015.5 hPa SW 0.3 km/h 1.9 km/h 94 % 0 mm
06:51 6.6 °C 5.7 °C 1015.8 hPa Calm     94 % 0 mm
06:56 6.5 °C 5.6 °C 1015.5 hPa Calm     94 % 0 mm
07:01 6.4 °C 5.6 °C 1015.8 hPa SW 0.2 km/h 3.2 km/h 94 % 0 mm
07:06 6.4 °C 5.3 °C 1015.5 hPa Calm   1.9 km/h 93 % 0 mm
07:11 6.2 °C 5.2 °C 1015.8 hPa Calm   1.9 km/h 93 % 0 mm
07:16 6.1 °C 5 °C 1015.8 hPa Calm     93 % 0 mm
07:21 5.8 °C 4.8 °C 1015.8 hPa North 1.1 km/h 1.9 km/h 93 % 0 mm
07:26 5.7 °C 4.7 °C 1015.8 hPa Calm     93 % 0 mm
07:31 5.6 °C 4.5 °C 1015.8 hPa Calm     93 % 0 mm
07:36 5.6 °C 4.7 °C 1016.1 hPa Calm     94 % 0 mm
07:41 5.6 °C 4.7 °C 1016.1 hPa Calm     94 % 0 mm
07:46 5.7 °C 4.8 °C 1015.8 hPa Calm     94 % 0 mm
07:51 5.9 °C 5.2 °C 1016.1 hPa North 1.9 km/h 3.7 km/h 95 % 0 mm
07:56 6.3 °C 5.6 °C 1016.1 hPa SW 3.7 km/h 5.6 km/h 95 % 0 mm
08:01 6.8 °C 6.1 °C 1015.8 hPa SW 4.7 km/h 7.4 km/h 95 % 0 mm
08:08 7.2 °C 6.4 °C 1015.8 hPa SW 5.8 km/h 7.4 km/h 95 % 0 mm
08:13 7.2 °C 6.3 °C 1015.8 hPa North 4.5 km/h 7.4 km/h 94 % 0 mm
08:18 7.3 °C 6.4 °C 1015.8 hPa North 5.1 km/h 7.4 km/h 94 % 0 mm
08:23 7.3 °C 6.4 °C 1015.8 hPa North 3.1 km/h 5.6 km/h 94 % 0 mm
08:28 7.3 °C 6.2 °C 1015.8 hPa SW 2.7 km/h 5.6 km/h 93 % 0 mm
08:33 7.3 °C 6.3 °C 1016.1 hPa North 0.8 km/h 3.7 km/h 93 % 0 mm
08:38 7.5 °C 6.4 °C 1015.8 hPa SW 2.3 km/h 5.6 km/h 93 % 0 mm
08:43 7.6 °C 6.6 °C 1016.1 hPa SW 3.7 km/h 4.8 km/h 93 % 0 mm
08:48 7.8 °C 6.7 °C 1016.1 hPa SW 2.1 km/h 5.6 km/h 93 % 0 mm
08:53 7.9 °C 6.9 °C 1016.1 hPa SW 0.5 km/h 1.9 km/h 93 % 0 mm
08:58 8.1 °C 7.1 °C 1016.1 hPa SW 1.4 km/h 5.6 km/h 93 % 0 mm
09:03 8.2 °C 7 °C 1016.1 hPa SW 6.3 km/h 7.4 km/h 92 % 0 mm
09:08 8.4 °C 7.2 °C 1016.1 hPa SW 3.9 km/h 5.6 km/h 92 % 0 mm
09:13 8.5 °C 7.3 °C 1016.5 hPa SW 1.4 km/h 3.2 km/h 92 % 0 mm
09:18 8.7 °C 7.3 °C 1016.1 hPa SW 2.9 km/h 5.6 km/h 91 % 0 mm
09:23 8.8 °C 7.4 °C 1015.8 hPa SW 2.4 km/h 3.7 km/h 91 % 0 mm
09:28 8.9 °C 7.4 °C 1015.8 hPa SW 1.1 km/h 5.6 km/h 90 % 0 mm
09:33 9.2 °C 7.6 °C 1015.8 hPa SW 2.7 km/h 6.4 km/h 90 % 0 mm
09:38 9.4 °C 7.9 °C 1015.8 hPa SW 4 km/h 5.6 km/h 90 % 0 mm
09:43 9.7 °C 7.8 °C 1015.8 hPa North 0.2 km/h 4.8 km/h 88 % 0 mm
09:48 9.9 °C 8 °C 1015.5 hPa WSW 1.9 km/h 7.4 km/h 88 % 0 mm
09:53 10.2 °C 8 °C 1015.5 hPa NNE 8.7 km/h 14.5 km/h 86 % 0 mm
09:58 10.4 °C 7.8 °C 1015.5 hPa NE 9.5 km/h 13 km/h 84 % 0 mm
10:03 10.6 °C 7.8 °C 1015.5 hPa NE 9.7 km/h 11.1 km/h 83 % 0 mm
10:08 10.8 °C 8.1 °C 1015.5 hPa NE 8.7 km/h 11.3 km/h 83 % 0 mm
10:13 11.2 °C 8.4 °C 1015.8 hPa NE 5.6 km/h 7.4 km/h 83 % 0 mm
10:18 11.8 °C 7.7 °C 1015.8 hPa North 10.5 km/h 18.5 km/h 76 % 0 mm
10:23 12.2 °C 7.3 °C 1016.1 hPa NNW 10.5 km/h 18.5 km/h 72 % 0 mm
10:28 12.4 °C 7.3 °C 1015.8 hPa North 13.2 km/h 18.5 km/h 71 % 0 mm
10:33 12.7 °C 7.4 °C 1016.1 hPa North 6.4 km/h 13 km/h 70 % 0 mm
10:38 12.9 °C 7.4 °C 1015.8 hPa NNE 10.6 km/h 14.8 km/h 69 % 0 mm
10:43 13.2 °C 7.4 °C 1015.8 hPa NNE 11.9 km/h 14.8 km/h 68 % 0 mm
10:48 13.3 °C 7.3 °C 1015.8 hPa NNW 12.4 km/h 18.5 km/h 67 % 0 mm
10:53 13.5 °C 7.3 °C 1015.8 hPa North 13.2 km/h 18.5 km/h 66 % 0 mm
10:58 13.6 °C 7.4 °C 1015.8 hPa NNE 14.8 km/h 19.3 km/h 66 % 0 mm
11:03 13.8 °C 7.1 °C 1015.5 hPa North 20.1 km/h 22.2 km/h 64 % 0 mm
11:08 13.9 °C 7.2 °C 1015.5 hPa NNE 10.1 km/h 22.2 km/h 64 % 0 mm
11:13 14.2 °C 7.5 °C 1015.5 hPa North 16.3 km/h 24.1 km/h 64 % 0 mm
11:18 14.3 °C 7.4 °C 1015.8 hPa North 12.6 km/h 24.1 km/h 63 % 0 mm
11:23 14.4 °C 7.7 °C 1015.8 hPa North 18.5 km/h 25.9 km/h 64 % 0 mm
11:28 14.3 °C 7.8 °C 1015.8 hPa NNE 14.8 km/h 25.7 km/h 65 % 0 mm
11:33 14.5 °C 7.6 °C 1015.5 hPa North 16.1 km/h 31.5 km/h 63 % 0 mm
11:38 14.6 °C 7.7 °C 1015.5 hPa NNE 15 km/h 18.5 km/h 63 % 0 mm
11:43 14.8 °C 7.6 °C 1015.5 hPa North 17.7 km/h 20.4 km/h 62 % 0 mm
11:48 14.9 °C 7.5 °C 1015.5 hPa North 12.6 km/h 24.1 km/h 61 % 0 mm
11:53 14.9 °C 7.4 °C 1015.5 hPa NNW 9.8 km/h 25.9 km/h 61 % 0 mm
11:58 15.1 °C 7.4 °C 1015.5 hPa North 10 km/h 20.4 km/h 60 % 0 mm
12:03 15.4 °C 7.9 °C 1015.1 hPa NW 10.8 km/h 25.9 km/h 61 % 0 mm
12:08 15.6 °C 7.4 °C 1015.1 hPa NNE 21.4 km/h 24.1 km/h 58 % 0 mm
12:13 15.7 °C 7.2 °C 1015.1 hPa NNW 20.6 km/h 20.6 km/h 57 % 0 mm
12:18 15.7 °C 7.2 °C 1015.1 hPa North 11.9 km/h 25.9 km/h 57 % 0 mm
12:23 15.9 °C 7.4 °C 1015.1 hPa North 12.4 km/h 18.5 km/h 57 % 0 mm
12:28 16.2 °C 7.4 °C 1015.1 hPa NNW 12.9 km/h 27.8 km/h 56 % 0 mm
12:33 16.6 °C 7.5 °C 1014.8 hPa NNE 11.1 km/h 22.2 km/h 55 % 0 mm
12:38 16.6 °C 6.9 °C 1014.4 hPa NNW 15.3 km/h 25.9 km/h 53 % 0 mm
12:43 16.7 °C 7.3 °C 1014.4 hPa NNE 15.9 km/h 31.5 km/h 54 % 0 mm
12:48 16.9 °C 7.2 °C 1014.4 hPa NNW 10.5 km/h 16.7 km/h 53 % 0 mm
12:53 16.7 °C 7.1 °C 1014.1 hPa North 12.1 km/h 20.4 km/h 53 % 0 mm
12:58 16.7 °C 7.1 °C 1014.1 hPa North 10.1 km/h 20.4 km/h 53 % 0 mm
13:04 16.8 °C 6.8 °C 1014.1 hPa NNE 16.9 km/h 27.8 km/h 52 % 0 mm
13:08 16.9 °C 7 °C 1014.1 hPa NNE 25.1 km/h 33.3 km/h 52 % 0 mm
13:13 17.3 °C 7.1 °C 1013.8 hPa NNE 10.8 km/h 20.4 km/h 51 % 0 mm
13:18 17.6 °C 7 °C 1013.8 hPa NNE 12.7 km/h 31.5 km/h 50 % 0 mm
13:23 17.6 °C 6.4 °C 1013.8 hPa NNW 16.3 km/h 18.5 km/h 48 % 0 mm
13:28 17.4 °C 6.6 °C 1013.8 hPa North 16.3 km/h 31.5 km/h 49 % 0 mm
13:33 17.7 °C 6.8 °C 1013.8 hPa NNW 16.7 km/h 20.4 km/h 49 % 0 mm
13:38 18.2 °C 7.3 °C 1013.8 hPa NNE 9 km/h 16.7 km/h 49 % 0 mm
13:43 18.8 °C 7.2 °C 1013.8 hPa NE 13.2 km/h 14.8 km/h 47 % 0 mm
13:48 19.1 °C 6.8 °C 1013.8 hPa North 12.1 km/h 24.1 km/h 45 % 0 mm
13:53 19 °C 7.1 °C 1013.4 hPa North 9 km/h 11.1 km/h 46 % 0 mm
13:58 18.8 °C 6.6 °C 1013.4 hPa North 15.3 km/h 20.4 km/h 45 % 0 mm
14:03 18.8 °C 6.6 °C 1013.1 hPa NNW 13.5 km/h 22.5 km/h 45 % 0 mm
14:08 18.7 °C 6.2 °C 1013.4 hPa North 14.5 km/h 24.1 km/h 44 % 0 mm
14:13 18.6 °C 6.1 °C 1013.1 hPa NW 12.4 km/h 22.5 km/h 44 % 0 mm
14:18 18.6 °C 6.7 °C 1013.1 hPa NNE 15.4 km/h 19.3 km/h 46 % 0 mm
14:23 18.8 °C 6.6 °C 1013.1 hPa North 11.9 km/h 24.1 km/h 45 % 0 mm
14:29 18.6 °C 6.4 °C 1012.8 hPa North 11.6 km/h 16.1 km/h 45 % 0 mm
14:33 18.4 °C 6.3 °C 1012.8 hPa NNW 18.7 km/h 20.9 km/h 45 % 0 mm
14:39 18.5 °C 6.3 °C 1012.8 hPa North 20.6 km/h 29 km/h 45 % 0 mm
14:44 18.4 °C 6.6 °C 1012.4 hPa NNE 12.7 km/h 18.5 km/h 46 % 0 mm
14:49 18.7 °C 6.8 °C 1012.4 hPa NNW 5.6 km/h 9.3 km/h 46 % 0 mm
14:53 18.7 °C 6.2 °C 1012.4 hPa NNW 15 km/h 18.5 km/h 44 % 0 mm
14:58 18.6 °C 6.4 °C 1012.4 hPa North 12.9 km/h 16.7 km/h 45 % 0 mm
15:04 18.6 °C 6.1 °C 1012.4 hPa North 18.7 km/h 31.5 km/h 44 % 0 mm
15:08 18.7 °C 6.2 °C 1012.1 hPa North 18.2 km/h 25.9 km/h 44 % 0 mm
15:13 18.7 °C 6.2 °C 1012.1 hPa NW 18.2 km/h 22.2 km/h 44 % 0 mm
15:18 18.9 °C 6.4 °C 1012.1 hPa NW 10.6 km/h 14.5 km/h 44 % 0 mm
15:24 19.2 °C 6.3 °C 1012.1 hPa NNE 15.8 km/h 24.1 km/h 43 % 0 mm
15:28 19.2 °C 6.3 °C 1012.1 hPa North 17.4 km/h 19.3 km/h 43 % 0 mm
15:33 19.2 °C 6 °C 1012.1 hPa North 17.1 km/h 18.5 km/h 42 % 0 mm
15:38 19.2 °C 6.3 °C 1012.1 hPa North 13.8 km/h 27.8 km/h 43 % 0 mm
15:44 19.3 °C 6.4 °C 1012.1 hPa NNE 9.8 km/h 16.7 km/h 43 % 0 mm
15:49 19.4 °C 6.1 °C 1012.1 hPa NNE 14.2 km/h 25.7 km/h 42 % 0 mm
15:54 19.4 °C 6.1 °C 1012.1 hPa NNE 13.5 km/h 20.4 km/h 42 % 0 mm
15:59 19.5 °C 6.2 °C 1012.1 hPa North 12.1 km/h 14.8 km/h 42 % 0 mm
16:04 19.6 °C 6 °C 1011.7 hPa North 12.6 km/h 24.1 km/h 41 % 0 mm
16:09 19.7 °C 6.1 °C 1011.7 hPa North 20.8 km/h 31.5 km/h 41 % 0 mm
16:14 19.7 °C 5.7 °C 1012.1 hPa NNE 19.6 km/h 27.8 km/h 40 % 0 mm
16:19 19.7 °C 6.1 °C 1012.1 hPa North 10.6 km/h 16.7 km/h 41 % 0 mm
16:24 19.7 °C 6.4 °C 1012.1 hPa NE 11.1 km/h 20.4 km/h 42 % 0 mm
16:29 19.6 °C 6 °C 1012.1 hPa North 17.4 km/h 24.1 km/h 41 % 0 mm
16:34 19.6 °C 6 °C 1012.1 hPa North 10.8 km/h 18.5 km/h 41 % 0 mm
16:39 19.7 °C 6.1 °C 1012.1 hPa North 13.5 km/h 24.1 km/h 41 % 0 mm
16:44 19.7 °C 6.1 °C 1012.1 hPa North 10.8 km/h 18.5 km/h 41 % 0 mm
16:49 19.8 °C 6.2 °C 1012.1 hPa North 10.8 km/h 16.7 km/h 41 % 0 mm
16:54 19.9 °C 5.9 °C 1012.1 hPa NNW 12.6 km/h 22.2 km/h 40 % 0 mm
16:59 19.9 °C 5.9 °C 1012.1 hPa WNW 19 km/h 27.8 km/h 40 % 0 mm
17:04 19.8 °C 5.8 °C 1011.7 hPa NNW 9.8 km/h 14.8 km/h 40 % 0 mm
17:09 19.7 °C 5.7 °C 1011.7 hPa North 8 km/h 12.9 km/h 40 % 0 mm
17:14 19.7 °C 5.7 °C 1011.4 hPa NNW 10.6 km/h 14.8 km/h 40 % 0 mm
17:19 19.7 °C 5.7 °C 1011.4 hPa NNW 12.9 km/h 18.5 km/h 40 % 0 mm
17:24 19.7 °C 5.7 °C 1011.7 hPa NNW 9 km/h 16.1 km/h 40 % 0 mm
17:29 19.7 °C 5.7 °C 1011.7 hPa North 6.3 km/h 9.3 km/h 40 % 0 mm
17:34 19.7 °C 5.7 °C 1011.7 hPa NNW 8.9 km/h 14.8 km/h 40 % 0 mm
17:39 19.7 °C 5.7 °C 1011.7 hPa North 9.8 km/h 14.8 km/h 40 % 0 mm
17:44 19.8 °C 5.8 °C 1011.7 hPa NNW 5.1 km/h 11.1 km/h 40 % 0 mm
17:49 19.9 °C 5.9 °C 1011.7 hPa NNW 10.8 km/h 18.5 km/h 40 % 0 mm
17:54 19.9 °C 5.6 °C 1011.7 hPa North 10.1 km/h 14.8 km/h 39 % 0 mm
17:59 20 °C 6 °C 1011.7 hPa NNW 6.4 km/h 9.3 km/h 40 % 0 mm
18:04 20.1 °C 5.7 °C 1011.7 hPa North 10.9 km/h 18.5 km/h 39 % 0 mm
18:09 20.1 °C 5.7 °C 1011.7 hPa NW 9.7 km/h 14.8 km/h 39 % 0 mm
18:14 20.1 °C 5.7 °C 1011.7 hPa NNW 8.5 km/h 11.1 km/h 39 % 0 mm
18:19 20.1 °C 5.7 °C 1011.7 hPa NNW 9.5 km/h 11.1 km/h 39 % 0 mm
18:24 20.1 °C 5.7 °C 1011.7 hPa North 7.1 km/h 11.1 km/h 39 % 0 mm
18:29 20.1 °C 5.3 °C 1011.4 hPa NNW 10.6 km/h 16.7 km/h 38 % 0 mm
18:34 20.1 °C 5.7 °C 1011.4 hPa NNW 6.1 km/h 12.9 km/h 39 % 0 mm
18:39 20.1 °C 5.7 °C 1011.4 hPa North 6.1 km/h 11.1 km/h 39 % 0 mm
18:44 20 °C 5.6 °C 1011.4 hPa NNW 4.3 km/h 7.4 km/h 39 % 0 mm
18:49 19.9 °C 5.6 °C 1011.4 hPa NNW 9.3 km/h 14.5 km/h 39 % 0 mm
18:54 19.9 °C 5.2 °C 1011.4 hPa North 9 km/h 14.8 km/h 38 % 0 mm
18:59 19.9 °C 5.2 °C 1011.1 hPa North 8 km/h 16.7 km/h 38 % 0 mm
19:04 19.8 °C 5.1 °C 1011.1 hPa North 9 km/h 14.8 km/h 38 % 0 mm
19:09 19.8 °C 5.4 °C 1011.1 hPa North 6.3 km/h 13 km/h 39 % 0 mm
19:14 19.7 °C 5.4 °C 1011.1 hPa North 6.3 km/h 9.3 km/h 39 % 0 mm
19:19 19.7 °C 5.3 °C 1011.1 hPa North 9 km/h 13 km/h 39 % 0 mm
19:24 19.6 °C 5.6 °C 1011.1 hPa North 6.9 km/h 9.3 km/h 40 % 0 mm
19:29 19.6 °C 5.6 °C 1010.7 hPa North 11.9 km/h 16.7 km/h 40 % 0 mm
19:34 19.6 °C 5.6 °C 1010.7 hPa North 6.6 km/h 11.1 km/h 40 % 0 mm
19:39 19.5 °C 5.9 °C 1010.4 hPa North 5.6 km/h 7.4 km/h 41 % 0 mm
19:44 19.4 °C 5.5 °C 1010.7 hPa NNE 9.5 km/h 14.8 km/h 40 % 0 mm
19:49 19.5 °C 5.9 °C 1010.7 hPa NNE 5.8 km/h 11.1 km/h 41 % 0 mm
19:54 19.5 °C 5.9 °C 1010.7 hPa NNE 8 km/h 13 km/h 41 % 0 mm
19:59 19.4 °C 5.8 °C 1010.7 hPa NNE 10 km/h 14.8 km/h 41 % 0 mm
20:04 19.4 °C 5.8 °C 1011.1 hPa NNE 11.4 km/h 14.8 km/h 41 % 0 mm
20:09 19.4 °C 5.8 °C 1011.1 hPa North 9 km/h 16.7 km/h 41 % 0 mm
20:14 19.4 °C 5.8 °C 1011.1 hPa North 7.7 km/h 13 km/h 41 % 0 mm
20:19 19.4 °C 5.8 °C 1011.1 hPa NNE 10.6 km/h 14.8 km/h 41 % 0 mm
20:24 19.4 °C 5.8 °C 1011.1 hPa NNE 7.2 km/h 11.1 km/h 41 % 0 mm
20:29 19.4 °C 5.8 °C 1011.1 hPa NNE 9.5 km/h 13 km/h 41 % 0 mm
20:34 19.4 °C 6.1 °C 1011.1 hPa NNE 8.2 km/h 16.1 km/h 42 % 0 mm
20:39 19.3 °C 6.4 °C 1011.1 hPa NNE 10 km/h 13 km/h 43 % 0 mm
20:44 19.2 °C 6.3 °C 1011.1 hPa NNE 14.2 km/h 16.7 km/h 43 % 0 mm
20:49 19.2 °C 6 °C 1011.1 hPa NNE 8.2 km/h 11.1 km/h 42 % 0 mm
20:54 19.2 °C 6 °C 1011.1 hPa NNE 8.7 km/h 16.7 km/h 42 % 0 mm
20:59 19.2 °C 5.7 °C 1011.1 hPa North 11.4 km/h 14.8 km/h 41 % 0 mm
21:04 19.3 °C 5.7 °C 1011.1 hPa NNE 9.3 km/h 16.7 km/h 41 % 0 mm
21:09 19.3 °C 5.7 °C 1010.7 hPa NNE 10.8 km/h 14.8 km/h 41 % 0 mm
21:14 19.2 °C 5.7 °C 1010.7 hPa NNE 6.1 km/h 14.5 km/h 41 % 0 mm
21:19 19.2 °C 5.7 °C 1011.1 hPa NNE 10.6 km/h 18.5 km/h 41 % 0 mm
21:24 19.3 °C 5.3 °C 1011.1 hPa NNE 13.2 km/h 22.2 km/h 40 % 0 mm
21:29 19.4 °C 5.4 °C 1011.1 hPa North 11.4 km/h 18.5 km/h 40 % 0 mm
21:34 19.4 °C 5.5 °C 1010.7 hPa North 13.7 km/h 18.5 km/h 40 % 0 mm
21:39 19.4 °C 5.5 °C 1011.1 hPa North 10 km/h 16.7 km/h 40 % 0 mm
21:44 19.5 °C 5.2 °C 1011.1 hPa North 12.2 km/h 22.2 km/h 39 % 0 mm
21:49 19.5 °C 5.2 °C 1011.1 hPa North 14.8 km/h 25.9 km/h 39 % 0 mm
21:54 19.6 °C 4.8 °C 1011.1 hPa North 15.3 km/h 18.5 km/h 38 % 0 mm
21:59 19.6 °C 4.9 °C 1011.1 hPa NNE 13.8 km/h 19.3 km/h 38 % 0 mm
22:04 19.6 °C 4.9 °C 1011.1 hPa North 12.4 km/h 14.8 km/h 38 % 0 mm
22:09 19.6 °C 4.8 °C 1011.4 hPa North 10.8 km/h 14.5 km/h 38 % 0 mm
22:14 19.6 °C 4.4 °C 1011.1 hPa North 12.2 km/h 16.7 km/h 37 % 0 mm
22:19 19.6 °C 4.5 °C 1011.1 hPa North 9.5 km/h 13 km/h 37 % 0 mm
22:24 19.6 °C 4.4 °C 1011.4 hPa North 9.7 km/h 14.8 km/h 37 % 0 mm
22:29 19.6 °C 4.4 °C 1011.4 hPa NNE 9.8 km/h 16.7 km/h 37 % 0 mm
22:34 19.6 °C 4.4 °C 1011.4 hPa North 6.9 km/h 18.5 km/h 37 % 0 mm
22:39 19.6 °C 4.5 °C 1011.4 hPa North 8.2 km/h 11.1 km/h 37 % 0 mm
22:44 19.6 °C 4.5 °C 1011.4 hPa North 9.7 km/h 18.5 km/h 37 % 0 mm
22:54 19.6 °C 4.5 °C 1011.4 hPa North 8.4 km/h 16.7 km/h 37 % 0 mm
22:59 19.6 °C 4.4 °C 1011.4 hPa North 6.9 km/h 8 km/h 37 % 0 mm
23:04 19.5 °C 4.4 °C 1011.4 hPa North 4.2 km/h 11.1 km/h 37 % 0 mm
23:09 19.4 °C 4.7 °C 1011.4 hPa North 4.3 km/h 14.8 km/h 38 % 0 mm
23:14 19.3 °C 4.7 °C 1011.4 hPa North 7.1 km/h 11.1 km/h 38 % 0 mm
23:19 19.3 °C 4.6 °C 1011.4 hPa North 8 km/h 9.7 km/h 38 % 0 mm
23:24 19.2 °C 4.6 °C 1011.1 hPa North 10 km/h 13 km/h 38 % 0 mm
23:29 19.1 °C 4.4 °C 1011.1 hPa NNE 7.2 km/h 13 km/h 38 % 0 mm
23:34 19 °C 4.7 °C 1011.1 hPa North 12.1 km/h 20.4 km/h 39 % 0 mm
23:39 18.9 °C 4.6 °C 1011.1 hPa North 7.2 km/h 18.5 km/h 39 % 0 mm
23:44 18.8 °C 4.6 °C 1011.1 hPa North 8.4 km/h 16.7 km/h 39 % 0 mm
23:49 18.8 °C 4.5 °C 1011.1 hPa North 6 km/h 13 km/h 39 % 0 mm
23:54 18.7 °C 4.8 °C 1011.1 hPa North 8.5 km/h 18.5 km/h 40 % 0 mm
23:59 18.8 °C 4.9 °C 1011.1 hPa North 6.9 km/h 12.9 km/h 40 % 0 mm
Ararat Weather
Compliments of Weather Underground - 2.25 mb
Click here to send mail.


ABOUT

Live weather data from Ararat, Victoria, Australia, 3377
Data uploaded from Cumulus every 5 minutes to Weather Underground.
This site then downloads the raw data for formatting and display.
Metric and imperial data can be displayed. Graphs and historical data available.
Includes Sun and Moon times and rain image live from BOM.

Check out Ararat Weather on Facebook, Twitter and Google +

Help support ongoing costs by checking out the ads





Follow @AraratWeather